Time;durP1;ratioP1;P1;durP2;ratioP2;P2;SDS_P1;SDS_P2;PMS_P1;PMS_P2;Temp;Humidity;BMP_temperature;BMP_pressure;BME280_temperature;BME280_humidity;BME280_pressure;Samples;Min_cycle;Max_cycle;Signal;HPM_P1;HPM_P2
2024/03/09 00:00:50;;;;;;;8.70;5.90;;;1.90;99.90;;;;;;5073362;28;20223;-75
2024/03/09 00:03:16;;;;;;;6.55;5.10;;;1.80;99.90;;;;;;5074499;28;20208;-75
2024/03/09 00:05:45;;;;;;;8.80;4.70;;;1.80;99.90;;;;;;5074332;28;20229;-75
2024/03/09 00:08:15;;;;;;;8.07;4.32;;;1.80;99.90;;;;;;5074321;28;20715;-75
2024/03/09 00:10:42;;;;;;;10.23;5.55;;;1.80;99.90;;;;;;5073917;28;20201;-75
2024/03/09 00:13:10;;;;;;;9.57;5.00;;;1.90;99.90;;;;;;5074147;28;20289;-75
2024/03/09 00:15:39;;;;;;;5.95;5.35;;;1.80;99.90;;;;;;5074270;28;20233;-75
2024/03/09 00:18:06;;;;;;;5.05;4.55;;;1.90;99.90;;;;;;5074053;28;20213;-75
2024/03/09 00:20:34;;;;;;;5.30;4.55;;;1.80;99.90;;;;;;5074019;28;20205;-75
2024/03/09 00:23:02;;;;;;;10.77;6.80;;;1.90;99.90;;;;;;5074255;28;20669;-75
2024/03/09 00:25:29;;;;;;;11.48;5.28;;;1.90;99.90;;;;;;5074146;28;20231;-75
2024/03/09 00:27:57;;;;;;;8.90;4.72;;;2.00;99.90;;;;;;5074161;28;20210;-75
2024/03/09 00:30:29;;;;;;;9.68;5.70;;;2.00;99.90;;;;;;5073712;28;20258;-75
2024/03/09 00:32:58;;;;;;;6.38;4.90;;;2.00;99.90;;;;;;5073830;28;20230;-75
2024/03/09 00:35:27;;;;;;;6.88;4.95;;;2.00;99.90;;;;;;5073841;28;20236;-75
2024/03/09 00:37:55;;;;;;;8.70;4.82;;;2.00;99.90;;;;;;5073849;28;20222;-75
2024/03/09 00:40:23;;;;;;;8.18;4.70;;;2.10;99.90;;;;;;5073588;28;20208;-75
2024/03/09 00:42:50;;;;;;;8.18;4.60;;;2.10;99.90;;;;;;5073820;28;20201;-75
2024/03/09 00:45:18;;;;;;;9.57;5.00;;;2.00;99.90;;;;;;5073636;28;20263;-75
2024/03/09 00:47:46;;;;;;;10.07;5.90;;;2.00;99.90;;;;;;5073657;28;20229;-76
2024/03/09 00:50:15;;;;;;;6.32;4.75;;;2.00;99.90;;;;;;5073231;28;20208;-75
2024/03/09 00:52:42;;;;;;;10.25;6.68;;;2.00;99.90;;;;;;5073518;28;20716;-76
2024/03/09 00:55:14;;;;;;;9.63;5.30;;;2.10;99.90;;;;;;5073440;28;20222;-75
2024/03/09 00:57:41;;;;;;;10.40;5.30;;;2.00;99.90;;;;;;5073491;28;20657;-75
2024/03/09 01:00:11;;;;;;;8.02;4.25;;;2.00;99.90;;;;;;5073073;28;20291;-75
2024/03/09 01:02:38;;;;;;;8.18;4.63;;;2.00;99.90;;;;;;5073407;28;20216;-75
2024/03/09 01:05:07;;;;;;;10.60;6.30;;;2.00;99.90;;;;;;5073237;28;20613;-75
2024/03/09 01:07:34;;;;;;;7.05;4.32;;;2.00;99.90;;;;;;5073317;28;20672;-75
2024/03/09 01:10:01;;;;;;;7.97;5.05;;;1.90;99.90;;;;;;5072598;28;20209;-75
2024/03/09 01:12:29;;;;;;;8.13;4.53;;;1.90;99.90;;;;;;5073299;28;20229;-75
2024/03/09 01:14:56;;;;;;;10.13;5.80;;;1.90;99.90;;;;;;5073136;28;20247;-75
2024/03/09 01:17:23;;;;;;;9.75;6.40;;;1.90;99.90;;;;;;5072994;28;20224;-75
2024/03/09 01:19:50;;;;;;;12.02;6.18;;;1.80;99.90;;;;;;5072759;28;20242;-75
2024/03/09 01:22:19;;;;;;;9.60;5.60;;;1.80;99.90;;;;;;5072983;28;20283;-75
2024/03/09 01:24:46;;;;;;;5.80;4.47;;;1.80;99.90;;;;;;5072894;28;20235;-75
2024/03/09 01:27:13;;;;;;;7.03;4.65;;;1.80;99.90;;;;;;5072845;28;20220;-75
2024/03/09 01:29:46;;;;;;;6.57;5.03;;;1.80;99.90;;;;;;5072826;28;20258;-75
2024/03/09 01:32:13;;;;;;;6.18;4.07;;;1.70;99.90;;;;;;5072629;28;20259;-75
2024/03/09 01:34:41;;;;;;;7.20;4.40;;;1.80;99.90;;;;;;5072609;28;20234;-75
2024/03/09 01:37:10;;;;;;;7.43;4.70;;;1.80;99.90;;;;;;5072760;28;20722;-75
2024/03/09 01:39:38;;;;;;;8.15;6.50;;;1.80;99.90;;;;;;5072468;28;20688;-75
2024/03/09 01:42:05;;;;;;;9.80;5.43;;;1.80;99.90;;;;;;5072482;28;20201;-75
2024/03/09 01:44:32;;;;;;;7.97;4.93;;;1.70;99.90;;;;;;5072624;28;20251;-75
2024/03/09 01:47:00;;;;;;;12.07;5.57;;;1.70;99.90;;;;;;5072650;28;20318;-75
2024/03/09 01:49:28;;;;;;;6.75;5.95;;;1.70;99.90;;;;;;5072208;28;20235;-75
2024/03/09 01:51:55;;;;;;;10.02;4.78;;;1.80;99.90;;;;;;5072221;28;20237;-75
2024/03/09 01:54:24;;;;;;;8.50;5.53;;;1.80;99.90;;;;;;5072246;28;20715;-75
2024/03/09 01:56:53;;;;;;;7.63;4.35;;;1.80;99.90;;;;;;5072413;28;20250;-75
2024/03/09 01:59:22;;;;;;;11.20;6.03;;;1.80;99.90;;;;;;5071883;28;20211;-75
2024/03/09 02:01:50;;;;;;;9.75;5.78;;;1.80;99.90;;;;;;5071980;28;20203;-75
2024/03/09 02:04:17;;;;;;;8.65;5.25;;;1.80;99.90;;;;;;5072096;28;20270;-75
2024/03/09 02:06:46;;;;;;;7.72;4.80;;;1.90;99.90;;;;;;5072266;28;20209;-75
2024/03/09 02:09:13;;;;;;;14.63;5.18;;;1.90;99.90;;;;;;5072012;28;20208;-75
2024/03/09 02:11:42;;;;;;;10.70;4.10;;;1.90;99.90;;;;;;5072075;28;20231;-75
2024/03/09 02:14:11;;;;;;;6.70;5.18;;;1.90;99.90;;;;;;5071915;28;20255;-75
2024/03/09 02:16:41;;;;;;;10.30;4.43;;;1.90;99.90;;;;;;5072029;28;20294;-75
2024/03/09 02:19:13;;;;;;;6.68;5.30;;;2.00;99.90;;;;;;5072125;28;20237;-75
2024/03/09 02:21:40;;;;;;;8.95;5.82;;;2.00;99.90;;;;;;5071359;28;20208;-75
2024/03/09 02:24:08;;;;;;;8.32;4.85;;;2.00;99.90;;;;;;5071512;28;20600;-75
2024/03/09 02:26:37;;;;;;;8.38;5.15;;;2.00;99.90;;;;;;5071604;28;20586;-74
2024/03/09 02:29:05;;;;;;;10.95;5.50;;;2.00;99.90;;;;;;5071580;28;20577;-74
2024/03/09 02:31:32;;;;;;;11.02;6.22;;;2.00;99.90;;;;;;5071335;28;20209;-74
2024/03/09 02:34:00;;;;;;;8.25;4.60;;;2.00;99.90;;;;;;5071590;28;20228;-74
2024/03/09 02:36:29;;;;;;;6.70;5.38;;;2.00;99.90;;;;;;5071491;28;20205;-74
2024/03/09 02:38:56;;;;;;;10.57;6.07;;;2.10;99.90;;;;;;5071353;28;20211;-74
2024/03/09 02:41:24;;;;;;;7.20;4.70;;;2.10;99.90;;;;;;5071314;28;20213;-74
2024/03/09 02:43:53;;;;;;;11.90;5.90;;;2.10;99.90;;;;;;5071693;28;20216;-74
2024/03/09 02:46:21;;;;;;;7.07;5.88;;;2.20;99.90;;;;;;5071624;28;20222;-74
2024/03/09 02:48:49;;;;;;;10.52;5.80;;;2.20;99.90;;;;;;5071356;28;20207;-74
2024/03/09 02:51:17;;;;;;;12.70;6.65;;;2.20;99.90;;;;;;5071344;28;20341;-74
2024/03/09 02:53:44;;;;;;;8.88;4.80;;;2.20;99.90;;;;;;5071406;28;20253;-73
2024/03/09 02:56:11;;;;;;;9.35;4.95;;;2.30;99.90;;;;;;5071514;28;20213;-74
2024/03/09 02:58:38;;;;;;;11.60;4.60;;;2.30;99.90;;;;;;5071033;28;20712;-75
2024/03/09 03:01:07;;;;;;;13.88;5.75;;;2.30;99.90;;;;;;5071289;28;20221;-74
2024/03/09 03:03:46;;;;;;;8.77;5.55;;;2.30;99.90;;;;;;5071224;28;20239;-74
2024/03/09 03:06:14;;;;;;;11.40;6.93;;;2.30;99.90;;;;;;5071308;28;20204;-74
2024/03/09 03:08:41;;;;;;;10.15;6.25;;;2.30;99.90;;;;;;5071161;28;20211;-74
2024/03/09 03:11:08;;;;;;;10.20;4.85;;;2.40;99.90;;;;;;5057978;28;20210;-74
2024/03/09 03:13:34;;;;;;;7.68;4.57;;;2.40;99.90;;;;;;5067873;28;20232;-74
2024/03/09 03:16:01;;;;;;;10.25;6.40;;;2.40;99.90;;;;;;5071427;28;20211;-74
2024/03/09 03:18:29;;;;;;;8.90;5.57;;;2.40;99.90;;;;;;5071145;28;20205;-74
2024/03/09 03:20:56;;;;;;;14.63;6.90;;;2.50;99.90;;;;;;5070947;28;20205;-74
2024/03/09 03:23:23;;;;;;;7.45;5.50;;;2.50;99.90;;;;;;5070950;28;20206;-74
2024/03/09 03:25:49;;;;;;;8.55;4.90;;;2.50;99.90;;;;;;5071001;28;20233;-74
2024/03/09 03:28:16;;;;;;;8.07;5.15;;;2.50;99.90;;;;;;5070824;28;20206;-74
2024/03/09 03:30:44;;;;;;;8.30;5.05;;;2.50;99.90;;;;;;5070669;28;20676;-74
2024/03/09 03:33:11;;;;;;;11.82;5.57;;;2.60;99.90;;;;;;5071311;28;20231;-74
2024/03/09 03:35:39;;;;;;;10.07;5.55;;;2.60;99.90;;;;;;5074774;28;20233;-74
2024/03/09 03:38:07;;;;;;;5.60;5.10;;;2.60;99.90;;;;;;5075094;28;20212;-73
2024/03/09 03:40:33;;;;;;;10.95;5.75;;;2.70;99.90;;;;;;5074663;28;20209;-74
2024/03/09 03:43:02;;;;;;;7.65;5.35;;;2.70;99.90;;;;;;5074936;28;20204;-74
2024/03/09 03:45:29;;;;;;;6.80;4.90;;;2.60;99.90;;;;;;5074701;28;20231;-74
2024/03/09 03:47:56;;;;;;;7.20;5.00;;;2.70;99.90;;;;;;5074931;28;20202;-73
2024/03/09 03:50:24;;;;;;;7.80;5.45;;;2.60;99.90;;;;;;5074556;28;20211;-74
2024/03/09 03:52:52;;;;;;;8.90;3.60;;;2.50;99.90;;;;;;5074520;28;20236;-73
2024/03/09 03:55:18;;;;;;;6.38;4.60;;;2.40;99.90;;;;;;5074565;28;20603;-74
2024/03/09 03:57:47;;;;;;;10.77;5.50;;;2.40;99.90;;;;;;5074511;28;20213;-74
2024/03/09 04:00:16;;;;;;;9.82;5.13;;;2.50;99.90;;;;;;5074214;28;20585;-74
2024/03/09 04:02:43;;;;;;;9.27;6.18;;;2.50;99.90;;;;;;5074298;28;20277;-74
2024/03/09 04:05:11;;;;;;;10.80;5.63;;;2.60;99.90;;;;;;5074432;28;20233;-74
2024/03/09 04:07:40;;;;;;;8.27;4.95;;;2.70;99.90;;;;;;5074213;28;20203;-73
2024/03/09 04:10:13;;;;;;;8.20;5.45;;;2.70;99.90;;;;;;5074176;28;20560;-74
2024/03/09 04:12:41;;;;;;;6.80;4.95;;;2.80;99.90;;;;;;5074138;28;20610;-73
2024/03/09 04:15:08;;;;;;;13.63;5.88;;;2.80;99.90;;;;;;5074299;28;20225;-74
2024/03/09 04:17:35;;;;;;;7.65;5.38;;;2.90;99.90;;;;;;5074012;28;20668;-74
2024/03/09 04:20:04;;;;;;;7.40;5.57;;;2.90;99.90;;;;;;5074003;28;20588;-74
2024/03/09 04:22:32;;;;;;;12.63;7.00;;;3.00;99.90;;;;;;5074017;28;20211;-74
2024/03/09 04:25:01;;;;;;;10.93;6.03;;;3.00;99.90;;;;;;5057649;28;20221;-74
2024/03/09 04:27:29;;;;;;;10.35;6.03;;;3.10;99.90;;;;;;5073889;28;20210;-74
2024/03/09 04:29:56;;;;;;;12.77;6.72;;;3.10;99.90;;;;;;5073813;28;20265;-74
2024/03/09 04:32:23;;;;;;;7.60;5.60;;;3.00;99.90;;;;;;5073812;28;20602;-74
2024/03/09 04:34:51;;;;;;;9.05;5.75;;;3.00;99.90;;;;;;5073850;28;20255;-74
2024/03/09 04:37:25;;;;;;;6.80;5.20;;;3.00;99.90;;;;;;5073958;28;20235;-74
2024/03/09 04:39:52;;;;;;;10.88;5.30;;;3.00;99.90;;;;;;5073533;28;20249;-74
2024/03/09 04:42:19;;;;;;;13.60;7.20;;;3.10;99.90;;;;;;5073805;28;20686;-74
2024/03/09 04:44:47;;;;;;;12.88;7.88;;;3.10;99.90;;;;;;5072981;28;20622;-74
2024/03/09 04:47:14;;;;;;;8.63;5.15;;;3.20;99.90;;;;;;5073539;28;20202;-74
2024/03/09 04:49:41;;;;;;;8.77;5.85;;;3.20;99.90;;;;;;5073338;28;20214;-74
2024/03/09 04:52:08;;;;;;;10.57;6.25;;;3.10;99.90;;;;;;5073660;28;20238;-73
2024/03/09 04:54:37;;;;;;;12.50;7.28;;;3.10;99.90;;;;;;5073279;28;20720;-74
2024/03/09 04:57:05;;;;;;;12.02;6.25;;;3.10;99.90;;;;;;5073838;28;20214;-74
2024/03/09 04:59:32;;;;;;;7.07;5.03;;;3.00;99.90;;;;;;5073142;28;20225;-74
2024/03/09 05:02:00;;;;;;;9.10;6.38;;;3.10;99.90;;;;;;5073376;28;20210;-73
2024/03/09 05:04:26;;;;;;;10.52;7.05;;;3.10;99.90;;;;;;5073420;28;20227;-74
2024/03/09 05:06:53;;;;;;;14.57;6.85;;;3.20;99.90;;;;;;5073285;28;20243;-74
2024/03/09 05:09:20;;;;;;;10.18;5.57;;;3.20;99.90;;;;;;5073290;28;20202;-73
2024/03/09 05:11:46;;;;;;;7.93;5.90;;;3.30;99.90;;;;;;5072968;28;20218;-74
2024/03/09 05:14:13;;;;;;;8.63;5.88;;;3.20;99.90;;;;;;5073253;28;20240;-74
2024/03/09 05:16:40;;;;;;;9.63;6.60;;;3.20;99.90;;;;;;5073066;28;20615;-74
2024/03/09 05:19:08;;;;;;;9.60;5.50;;;3.10;99.90;;;;;;5073098;28;20220;-74
2024/03/09 05:21:36;;;;;;;8.90;7.22;;;3.10;99.90;;;;;;5072770;28;20671;-73
2024/03/09 05:24:03;;;;;;;7.60;5.50;;;3.00;99.90;;;;;;5073038;28;20598;-74
2024/03/09 05:26:32;;;;;;;14.40;5.55;;;3.00;99.90;;;;;;5072955;28;20207;-74
2024/03/09 05:29:00;;;;;;;9.38;6.38;;;2.90;99.90;;;;;;5072478;28;20211;-74
2024/03/09 05:31:30;;;;;;;9.10;6.03;;;2.90;99.90;;;;;;5072637;28;20207;-74
2024/03/09 05:33:57;;;;;;;5.78;4.25;;;2.90;99.90;;;;;;5055944;28;20235;-74
2024/03/09 05:36:25;;;;;;;11.57;6.22;;;2.80;99.90;;;;;;5072870;28;20206;-74
2024/03/09 05:38:52;;;;;;;7.10;5.43;;;2.80;99.90;;;;;;5072540;28;20240;-74
2024/03/09 05:41:19;;;;;;;10.80;6.32;;;2.80;99.90;;;;;;5072461;28;20729;-74
2024/03/09 05:43:47;;;;;;;10.65;5.50;;;2.70;99.90;;;;;;5072368;28;20248;-74
2024/03/09 05:46:17;;;;;;;9.82;6.15;;;2.70;99.90;;;;;;5072520;28;20202;-74
2024/03/09 05:48:45;;;;;;;7.93;5.25;;;2.70;99.90;;;;;;5072248;28;20206;-75
2024/03/09 05:51:14;;;;;;;12.23;6.60;;;2.70;99.90;;;;;;5072335;28;20234;-74
2024/03/09 05:53:42;;;;;;;9.65;5.35;;;2.60;99.90;;;;;;5072083;28;20226;-75
2024/03/09 05:56:10;;;;;;;16.75;6.95;;;2.60;99.90;;;;;;5072451;28;20210;-74
2024/03/09 05:58:37;;;;;;;5.70;4.50;;;2.60;99.90;;;;;;5072105;28;20317;-74
2024/03/09 06:01:04;;;;;;;10.13;7.18;;;2.60;99.90;;;;;;5072256;28;20301;-74
2024/03/09 06:03:30;;;;;;;8.52;4.90;;;2.60;99.90;;;;;;5072073;28;20659;-75
2024/03/09 06:05:57;;;;;;;7.95;5.75;;;2.60;99.90;;;;;;5072492;28;20238;-75
2024/03/09 06:08:24;;;;;;;9.55;5.63;;;2.50;99.90;;;;;;5072235;28;20207;-75
2024/03/09 06:10:53;;;;;;;10.73;5.38;;;2.50;99.90;;;;;;5071576;28;20587;-74
2024/03/09 06:13:20;;;;;;;6.95;4.88;;;2.40;99.90;;;;;;5071873;28;20660;-74
2024/03/09 06:15:48;;;;;;;10.05;6.25;;;2.40;99.90;;;;;;5071840;28;20231;-74
2024/03/09 06:18:19;;;;;;;9.63;5.15;;;2.40;99.90;;;;;;5071797;28;20214;-73
2024/03/09 06:20:46;;;;;;;8.10;5.35;;;2.30;99.90;;;;;;5135497;22;20222;-73
2024/03/09 06:23:14;;;;;;;8.80;6.65;;;2.30;99.90;;;;;;5050918;28;20213;-73
2024/03/09 06:25:41;;;;;;;9.65;5.80;;;2.30;99.90;;;;;;5033638;28;20258;-73
2024/03/09 06:28:14;;;;;;;11.75;5.70;;;2.30;99.90;;;;;;5031543;28;20241;-73
2024/03/09 06:30:41;;;;;;;8.40;4.72;;;2.30;99.90;;;;;;5031100;28;20231;-73
2024/03/09 06:33:09;;;;;;;7.32;5.18;;;2.30;99.90;;;;;;5031679;28;20315;-73
2024/03/09 06:35:36;;;;;;;4.70;3.90;;;2.20;99.90;;;;;;5031335;28;20634;-74
2024/03/09 06:38:05;;;;;;;5.85;4.57;;;2.20;99.90;;;;;;5031719;28;20584;-73
2024/03/09 06:40:34;;;;;;;6.25;4.45;;;2.20;99.90;;;;;;5031156;28;20210;-73
2024/03/09 06:43:01;;;;;;;23.20;8.88;;;2.30;99.90;;;;;;5023780;28;20211;-73
2024/03/09 06:45:31;;;;;;;8.05;5.90;;;2.30;99.90;;;;;;5031260;28;20230;-73
2024/03/09 06:47:58;;;;;;;10.57;5.53;;;2.30;99.90;;;;;;5031086;28;20203;-73
2024/03/09 06:50:25;;;;;;;6.82;4.75;;;2.40;99.90;;;;;;5030978;28;20941;-73
2024/03/09 06:52:52;;;;;;;7.65;4.68;;;2.50;99.90;;;;;;5031018;28;20211;-74
2024/03/09 06:55:24;;;;;;;10.82;5.68;;;2.70;99.90;;;;;;5031147;28;20229;-74
2024/03/09 06:57:52;;;;;;;10.20;6.85;;;2.90;99.90;;;;;;5030978;28;20252;-74
2024/03/09 07:00:20;;;;;;;8.05;5.22;;;3.10;99.90;;;;;;5030938;28;20211;-73
2024/03/09 07:02:49;;;;;;;8.23;3.88;;;3.30;99.90;;;;;;5030731;28;20205;-74
2024/03/09 07:05:16;;;;;;;10.70;5.93;;;3.60;99.90;;;;;;5031232;28;20220;-74
2024/03/09 07:07:43;;;;;;;9.75;6.93;;;4.10;99.90;;;;;;5030496;28;20224;-74
2024/03/09 07:10:11;;;;;;;11.38;7.80;;;4.70;99.90;;;;;;5030739;28;20212;-74
2024/03/09 07:12:39;;;;;;;8.93;5.57;;;5.30;99.90;;;;;;5030542;28;20675;-74
2024/03/09 07:15:14;;;;;;;13.38;7.53;;;6.00;99.90;;;;;;5030622;28;20225;-74
2024/03/09 07:17:41;;;;;;;9.43;6.68;;;6.50;99.90;;;;;;5030620;28;20220;-74
2024/03/09 07:20:13;;;;;;;10.13;6.53;;;7.00;99.90;;;;;;5030765;28;20201;-74
2024/03/09 07:22:41;;;;;;;11.15;6.82;;;7.60;99.90;;;;;;5030230;28;20210;-74
2024/03/09 07:25:10;;;;;;;11.50;6.13;;;8.20;99.90;;;;;;5030301;28;20276;-74
2024/03/09 07:27:40;;;;;;;9.50;6.13;;;8.80;99.90;;;;;;5034244;28;20226;-74
2024/03/09 07:30:09;;;;;;;10.15;7.20;;;9.20;99.90;;;;;;5023736;28;20205;-74
2024/03/09 07:32:35;;;;;;;10.18;7.18;;;9.60;99.90;;;;;;5030856;28;20207;-74
2024/03/09 07:35:05;;;;;;;11.18;6.40;;;9.90;99.90;;;;;;5030598;28;20682;-74
2024/03/09 07:37:33;;;;;;;11.23;6.80;;;9.90;99.90;;;;;;5030754;28;20223;-74
2024/03/09 07:40:00;;;;;;;10.30;6.15;;;9.60;99.90;;;;;;5029968;28;20664;-74
2024/03/09 07:42:27;;;;;;;11.05;6.93;;;9.60;99.90;;;;;;5030820;28;20212;-74
2024/03/09 07:44:53;;;;;;;10.85;5.88;;;9.80;99.90;;;;;;5021344;28;20224;-74
2024/03/09 07:47:22;;;;;;;14.15;7.25;;;10.00;99.90;;;;;;5030700;28;20206;-74
2024/03/09 07:49:49;;;;;;;11.25;6.85;;;10.30;99.90;;;;;;5030094;28;20202;-74
2024/03/09 07:52:16;;;;;;;9.38;7.68;;;11.10;99.90;;;;;;5031410;28;20205;-74
2024/03/09 07:54:44;;;;;;;9.63;6.65;;;12.00;99.90;;;;;;5030472;28;20234;-74
2024/03/09 07:57:11;;;;;;;11.90;6.90;;;12.40;99.90;;;;;;5030439;28;20221;-74
2024/03/09 07:59:38;;;;;;;7.38;5.70;;;12.20;99.90;;;;;;5030209;28;20212;-74
2024/03/09 08:02:06;;;;;;;10.85;7.07;;;12.40;99.90;;;;;;5030347;28;20202;-74
2024/03/09 08:04:35;;;;;;;10.20;6.38;;;12.50;99.90;;;;;;5030419;28;20218;-74
2024/03/09 08:07:02;;;;;;;9.65;6.60;;;12.20;99.90;;;;;;5030290;28;20764;-74
2024/03/09 08:09:29;;;;;;;9.63;6.68;;;12.10;99.90;;;;;;5030275;28;20244;-74
2024/03/09 08:11:57;;;;;;;10.70;6.00;;;12.50;99.90;;;;;;5098027;22;20320;-74
2024/03/09 08:14:27;;;;;;;9.77;5.95;;;12.60;99.90;;;;;;5044376;28;20241;-74
2024/03/09 08:16:55;;;;;;;8.27;5.80;;;13.10;99.90;;;;;;5030002;28;20287;-74
2024/03/09 08:19:22;;;;;;;7.13;5.80;;;13.80;99.90;;;;;;5085588;22;20294;-74
2024/03/09 08:21:51;;;;;;;8.40;7.00;;;15.00;99.90;;;;;;5051202;28;20483;-74
2024/03/09 08:24:18;;;;;;;9.10;5.57;;;16.00;99.90;;;;;;5048741;28;20504;-74
2024/03/09 08:26:45;;;;;;;9.30;6.90;;;16.70;98.90;;;;;;5020173;28;20468;-74
2024/03/09 08:29:14;;;;;;;8.40;5.80;;;16.80;98.00;;;;;;5016886;28;20461;-74
2024/03/09 08:31:41;;;;;;;8.93;6.17;;;16.70;97.50;;;;;;5018306;28;20464;-74
2024/03/09 08:34:08;;;;;;;8.00;5.27;;;16.90;97.40;;;;;;5016704;28;20489;-74
2024/03/09 08:36:35;;;;;;;9.80;6.23;;;16.80;97.20;;;;;;5017445;28;20462;-74
2024/03/09 08:39:02;;;;;;;10.03;5.77;;;17.30;97.30;;;;;;5017899;28;21019;-74
2024/03/09 08:41:28;;;;;;;8.40;5.70;;;17.40;96.10;;;;;;5025111;28;20487;-74
2024/03/09 08:43:55;;;;;;;10.37;6.00;;;17.20;96.50;;;;;;5020636;28;20487;-74
2024/03/09 08:46:23;;;;;;;6.63;5.20;;;17.20;96.10;;;;;;5022216;28;20469;-74
2024/03/09 08:48:50;;;;;;;9.30;6.50;;;17.70;96.50;;;;;;5018714;28;20854;-74
2024/03/09 08:51:18;;;;;;;7.30;5.77;;;18.80;96.30;;;;;;5017066;28;20488;-74
2024/03/09 08:53:45;;;;;;;6.47;5.40;;;19.80;94.60;;;;;;5027026;28;20549;-74
2024/03/09 08:56:14;;;;;;;9.67;6.20;;;20.20;94.80;;;;;;5017471;28;20472;-74
2024/03/09 08:58:41;;;;;;;8.30;5.53;;;20.10;93.20;;;;;;5024891;28;20465;-74
2024/03/09 09:01:09;;;;;;;6.70;5.17;;;20.50;93.40;;;;;;5017293;28;20951;-74
2024/03/09 09:03:37;;;;;;;6.57;5.10;;;20.90;92.30;;;;;;5017674;28;20465;-74
2024/03/09 09:06:07;;;;;;;9.20;6.47;;;21.70;92.80;;;;;;5018372;28;20552;-74
2024/03/09 09:08:36;;;;;;;9.10;6.43;;;22.40;92.50;;;;;;5017548;28;20464;-75
2024/03/09 09:11:04;;;;;;;9.87;6.47;;;22.80;91.00;;;;;;5018540;28;20953;-74
2024/03/09 09:13:31;;;;;;;7.50;6.20;;;22.80;91.60;;;;;;5017590;28;20467;-74
2024/03/09 09:15:58;;;;;;;10.20;5.87;;;23.00;91.30;;;;;;5023331;28;20939;-75
2024/03/09 09:18:25;;;;;;;6.93;5.97;;;23.50;91.00;;;;;;5017508;28;20461;-74
2024/03/09 09:20:53;;;;;;;6.70;5.60;;;23.20;90.70;;;;;;5018810;28;20472;-74
2024/03/09 09:23:20;;;;;;;6.70;5.70;;;23.20;90.60;;;;;;5017336;28;20457;-75
2024/03/09 09:25:47;;;;;;;8.37;6.67;;;23.40;90.30;;;;;;5025189;28;20935;-74
2024/03/09 09:28:16;;;;;;;8.97;6.63;;;23.50;90.30;;;;;;5017550;28;20464;-74
2024/03/09 09:30:44;;;;;;;7.97;5.97;;;23.70;90.60;;;;;;5023989;28;20519;-75
2024/03/09 09:33:13;;;;;;;6.60;5.73;;;23.70;90.20;;;;;;5017605;28;20737;-74
2024/03/09 09:35:40;;;;;;;7.30;6.60;;;23.90;90.20;;;;;;5023870;28;20576;-74
2024/03/09 09:38:08;;;;;;;7.47;6.20;;;24.10;87.90;;;;;;5018478;28;20471;-74
2024/03/09 09:40:34;;;;;;;8.13;6.33;;;24.40;89.60;;;;;;5023107;28;20461;-74
2024/03/09 09:43:02;;;;;;;7.27;5.10;;;24.60;87.10;;;;;;5019322;28;20469;-74
2024/03/09 09:45:33;;;;;;;6.87;5.17;;;24.40;85.60;;;;;;5022976;28;20477;-74
2024/03/09 09:48:01;;;;;;;6.83;5.00;;;24.40;87.20;;;;;;5023527;28;20452;-74
2024/03/09 09:50:34;;;;;;;7.30;5.60;;;24.60;86.50;;;;;;5025695;28;20456;-74
2024/03/09 09:53:03;;;;;;;7.73;5.03;;;24.70;85.70;;;;;;5019431;28;20456;-75
2024/03/09 09:55:31;;;;;;;6.70;4.57;;;25.00;82.70;;;;;;5022721;28;20489;-74
2024/03/09 09:57:58;;;;;;;7.43;5.80;;;24.60;82.60;;;;;;5022977;28;20460;-74
2024/03/09 10:00:26;;;;;;;6.20;5.60;;;24.40;84.60;;;;;;5022881;28;20511;-75
2024/03/09 10:02:58;;;;;;;7.57;5.20;;;24.30;82.90;;;;;;5021661;28;20478;-75
2024/03/09 10:05:28;;;;;;;7.90;5.80;;;24.30;85.30;;;;;;5025857;28;20477;-75
2024/03/09 10:08:01;;;;;;;6.07;5.23;;;24.70;84.60;;;;;;5020706;28;20467;-75
2024/03/09 10:10:30;;;;;;;6.30;5.17;;;24.40;85.00;;;;;;5022772;28;20903;-75
2024/03/09 10:13:09;;;;;;;9.50;6.00;;;24.00;85.20;;;;;;5020305;28;20515;-75
2024/03/09 10:15:38;;;;;;;7.10;5.43;;;23.50;84.10;;;;;;5023354;28;20485;-75
2024/03/09 10:18:05;;;;;;;8.60;6.07;;;24.10;85.20;;;;;;5019400;28;20471;-75
2024/03/09 10:20:32;;;;;;;7.53;5.70;;;24.70;85.70;;;;;;5022225;28;20465;-75
2024/03/09 10:23:01;;;;;;;6.40;5.33;;;25.00;84.00;;;;;;5020351;28;20510;-75
2024/03/09 10:25:30;;;;;;;6.30;4.53;;;25.20;83.10;;;;;;5022794;28;20923;-75
2024/03/09 10:27:58;;;;;;;7.33;5.73;;;25.20;83.50;;;;;;5020544;28;20453;-74
2024/03/09 10:30:27;;;;;;;6.20;5.00;;;25.40;83.40;;;;;;5020565;28;20460;-74
2024/03/09 10:32:55;;;;;;;6.53;5.83;;;25.30;81.60;;;;;;5028891;28;20468;-74
2024/03/09 10:35:23;;;;;;;6.70;5.13;;;25.20;81.90;;;;;;5017602;28;20502;-75
2024/03/09 10:37:55;;;;;;;7.17;5.50;;;25.20;83.30;;;;;;5025091;28;20953;-75
2024/03/09 10:40:22;;;;;;;6.00;5.00;;;24.90;82.10;;;;;;5022826;28;20465;-74
2024/03/09 10:42:51;;;;;;;6.67;5.23;;;24.80;81.40;;;;;;5024603;28;20472;-74
2024/03/09 10:45:19;;;;;;;6.20;4.87;;;24.50;82.50;;;;;;5018261;28;20485;-75
2024/03/09 10:47:50;;;;;;;6.50;5.00;;;24.90;84.50;;;;;;5032967;28;20519;-75
2024/03/09 10:50:23;;;;;;;8.93;5.87;;;25.40;82.60;;;;;;5018355;28;20513;-75
2024/03/09 10:52:57;;;;;;;7.93;4.83;;;25.80;82.10;;;;;;5024884;28;20465;-74
2024/03/09 10:55:34;;;;;;;6.00;5.20;;;26.10;82.70;;;;;;5019462;28;20484;-73
2024/03/09 10:58:06;;;;;;;6.40;3.90;;;25.70;81.50;;;;;;5027312;28;20466;-73
2024/03/09 11:00:33;;;;;;;5.80;5.17;;;25.10;79.20;;;;;;5017900;28;20476;-72
2024/03/09 11:03:07;;;;;;;4.03;3.63;;;24.30;81.40;;;;;;5025645;28;20464;-72
2024/03/09 11:05:37;;;;;;;6.30;4.30;;;24.70;81.90;;;;;;5018686;28;21031;-72
2024/03/09 11:08:04;;;;;;;4.43;4.03;;;25.50;79.70;;;;;;5025172;28;20544;-73
2024/03/09 11:10:32;;;;;;;6.10;4.40;;;25.80;80.50;;;;;;5018163;28;20466;-73
2024/03/09 11:12:58;;;;;;;7.30;4.23;;;26.30;80.50;;;;;;5027212;28;20464;-72
2024/03/09 11:15:31;;;;;;;5.57;4.53;;;26.40;78.80;;;;;;5017827;28;20496;-72
2024/03/09 11:17:58;;;;;;;6.23;4.20;;;25.60;79.20;;;;;;5025999;28;20467;-73
2024/03/09 11:20:27;;;;;;;5.83;4.77;;;25.10;79.60;;;;;;5025728;28;20937;-73
2024/03/09 11:22:53;;;;;;;6.43;4.87;;;24.40;80.70;;;;;;5034174;28;20468;-73
2024/03/09 11:25:35;;;;;;;5.07;4.50;;;24.10;79.60;;;;;;5019119;28;20504;-73
2024/03/09 11:28:02;;;;;;;5.50;4.67;;;23.30;80.40;;;;;;5028866;28;20823;-74
2024/03/09 11:30:31;;;;;;;5.03;4.53;;;23.30;80.10;;;;;;5018401;28;20840;-74
2024/03/09 11:32:58;;;;;;;5.50;4.13;;;23.70;82.30;;;;;;5026982;28;20463;-74
2024/03/09 11:35:32;;;;;;;5.80;4.13;;;23.90;79.80;;;;;;5018713;28;20493;-74
2024/03/09 11:38:09;;;;;;;6.90;5.00;;;23.80;80.60;;;;;;5027871;28;20980;-74
2024/03/09 11:40:36;;;;;;;6.17;5.47;;;24.20;82.30;;;;;;5019456;28;20555;-73
2024/03/09 11:43:04;;;;;;;4.97;4.47;;;25.30;81.00;;;;;;5026154;28;20837;-73
2024/03/09 11:45:31;;;;;;;5.30;4.17;;;26.30;79.20;;;;;;5018945;28;20509;-74
2024/03/09 11:47:58;;;;;;;5.90;4.23;;;26.80;79.00;;;;;;5026617;28;20483;-74
2024/03/09 11:50:25;;;;;;;4.73;3.70;;;27.20;76.10;;;;;;5019299;28;20963;-75
2024/03/09 11:52:54;;;;;;;5.13;4.20;;;27.70;78.10;;;;;;5022716;28;21013;-74
2024/03/09 11:55:21;;;;;;;4.40;3.77;;;27.50;74.10;;;;;;5022146;28;20498;-74
2024/03/09 11:57:48;;;;;;;4.43;4.03;;;26.40;75.20;;;;;;5025229;28;20457;-74
2024/03/09 12:00:16;;;;;;;4.80;4.40;;;25.80;74.60;;;;;;5024496;28;20464;-74
2024/03/09 12:02:43;;;;;;;3.90;3.50;;;24.60;74.80;;;;;;5024592;28;20465;-74
2024/03/09 12:05:15;;;;;;;5.07;3.90;;;24.80;77.40;;;;;;5025465;28;20488;-75
2024/03/09 12:07:43;;;;;;;4.57;3.50;;;24.50;77.20;;;;;;5024408;28;20547;-75
2024/03/09 12:10:14;;;;;;;4.50;4.07;;;24.70;76.00;;;;;;5025562;28;20461;-74
2024/03/09 12:12:42;;;;;;;7.70;4.40;;;24.80;77.90;;;;;;5024290;28;20844;-74
2024/03/09 12:15:10;;;;;;;6.07;4.77;;;24.40;75.70;;;;;;5025879;28;20514;-74
2024/03/09 12:17:38;;;;;;;4.80;4.17;;;23.80;77.10;;;;;;5023785;28;20465;-74
2024/03/09 12:20:06;;;;;;;5.17;3.63;;;23.50;76.90;;;;;;5026325;28;20471;-74
2024/03/09 12:22:35;;;;;;;3.77;3.33;;;23.10;78.20;;;;;;5023059;28;20465;-74
2024/03/09 12:25:03;;;;;;;6.33;3.70;;;23.20;80.00;;;;;;5026466;28;20508;-74
2024/03/09 12:27:32;;;;;;;7.07;4.47;;;23.20;77.70;;;;;;5023302;28;20464;-74
2024/03/09 12:29:59;;;;;;;5.50;4.40;;;23.30;78.10;;;;;;5027125;28;20456;-75
2024/03/09 12:32:27;;;;;;;5.20;3.40;;;23.50;78.10;;;;;;5024803;28;20471;-74
2024/03/09 12:34:54;;;;;;;5.50;4.80;;;23.10;79.00;;;;;;5026659;28;20549;-74
2024/03/09 12:37:27;;;;;;;5.00;3.67;;;22.90;76.70;;;;;;5024847;28;20464;-73
2024/03/09 12:40:11;;;;;;;5.50;4.17;;;23.30;78.50;;;;;;5026031;28;20510;-73
2024/03/09 12:42:42;;;;;;;4.13;3.73;;;23.20;78.60;;;;;;5024209;28;20461;-72
2024/03/09 12:45:19;;;;;;;5.70;3.70;;;23.60;79.40;;;;;;5026947;28;20476;-73
2024/03/09 12:47:46;;;;;;;6.53;3.77;;;24.00;77.50;;;;;;5025491;28;20519;-73
2024/03/09 12:50:16;;;;;;;4.43;3.80;;;24.60;77.40;;;;;;5025842;28;20474;-74
2024/03/09 12:52:45;;;;;;;6.07;3.97;;;24.70;76.40;;;;;;5025316;28;20840;-74
2024/03/09 12:55:16;;;;;;;4.47;3.50;;;24.00;75.30;;;;;;5026401;28;20543;-73